sensor_id;sensor_type;location;lat;lon;timestamp;pressure;altitude;pressure_sealevel;temperature;humidity
42603;BME280;28233;55.748;48.752;2023-04-28T00:01:16;99076.25;;;11.41;84.69
42603;BME280;28233;55.748;48.752;2023-04-28T00:03:19;99086.09;;;11.42;84.67
42603;BME280;28233;55.748;48.752;2023-04-28T00:05:22;99081.41;;;11.43;84.76
42603;BME280;28233;55.748;48.752;2023-04-28T00:07:26;99080.25;;;11.44;84.44
42603;BME280;28233;55.748;48.752;2023-04-28T00:09:29;99081.41;;;11.43;84.21
42603;BME280;28233;55.748;48.752;2023-04-28T00:11:32;99073.50;;;11.41;84.51
42603;BME280;28233;55.748;48.752;2023-04-28T00:13:35;99086.44;;;11.41;84.67
42603;BME280;28233;55.748;48.752;2023-04-28T00:15:38;99084.81;;;11.40;84.62
42603;BME280;28233;55.748;48.752;2023-04-28T00:17:40;99085.97;;;11.39;84.46
42603;BME280;28233;55.748;48.752;2023-04-28T00:19:43;99091.47;;;11.39;84.77
42603;BME280;28233;55.748;48.752;2023-04-28T00:21:46;99091.00;;;11.37;84.61
42603;BME280;28233;55.748;48.752;2023-04-28T00:23:49;99095.56;;;11.33;84.47
42603;BME280;28233;55.748;48.752;2023-04-28T00:25:53;99092.34;;;11.31;84.82
42603;BME280;28233;55.748;48.752;2023-04-28T00:27:56;99094.97;;;11.27;84.57
42603;BME280;28233;55.748;48.752;2023-04-28T00:29:59;99098.84;;;11.26;84.45
42603;BME280;28233;55.748;48.752;2023-04-28T00:32:07;99095.19;;;11.22;84.70
42603;BME280;28233;55.748;48.752;2023-04-28T00:34:10;99102.16;;;11.19;84.74
42603;BME280;28233;55.748;48.752;2023-04-28T00:36:16;99105.91;;;11.15;84.69
42603;BME280;28233;55.748;48.752;2023-04-28T00:38:18;99108.53;;;11.11;85.03
42603;BME280;28233;55.748;48.752;2023-04-28T00:40:21;99110.78;;;11.09;85.21
42603;BME280;28233;55.748;48.752;2023-04-28T00:42:24;99110.69;;;11.06;85.42
42603;BME280;28233;55.748;48.752;2023-04-28T00:44:27;99110.69;;;11.06;85.74
42603;BME280;28233;55.748;48.752;2023-04-28T00:46:32;99107.44;;;11.04;85.41
42603;BME280;28233;55.748;48.752;2023-04-28T00:48:35;99115.34;;;11.05;86.00
42603;BME280;28233;55.748;48.752;2023-04-28T00:50:38;99112.59;;;11.05;85.88
42603;BME280;28233;55.748;48.752;2023-04-28T00:52:42;99107.09;;;11.05;86.12
42603;BME280;28233;55.748;48.752;2023-04-28T00:54:44;99108.72;;;11.06;86.24
42603;BME280;28233;55.748;48.752;2023-04-28T00:56:49;99114.22;;;11.06;86.05
42603;BME280;28233;55.748;48.752;2023-04-28T00:58:52;99105.50;;;11.04;86.02
42603;BME280;28233;55.748;48.752;2023-04-28T01:01:05;99110.69;;;11.06;86.00
42603;BME280;28233;55.748;48.752;2023-04-28T01:03:09;99114.56;;;11.05;86.10
42603;BME280;28233;55.748;48.752;2023-04-28T01:05:13;99108.56;;;11.03;86.28
42603;BME280;28233;55.748;48.752;2023-04-28T01:07:16;99108.09;;;11.00;86.47
42603;BME280;28233;55.748;48.752;2023-04-28T01:09:19;99109.25;;;10.99;86.56
42603;BME280;28233;55.748;48.752;2023-04-28T01:11:22;99105.03;;;11.02;86.63
42603;BME280;28233;55.748;48.752;2023-04-28T01:13:25;99100.34;;;11.03;86.95
42603;BME280;28233;55.748;48.752;2023-04-28T01:15:28;99106.97;;;11.02;86.90
42603;BME280;28233;55.748;48.752;2023-04-28T01:17:31;99109.06;;;11.05;87.14
42603;BME280;28233;55.748;48.752;2023-04-28T01:19:34;99118.94;;;11.06;86.81
42603;BME280;28233;55.748;48.752;2023-04-28T01:21:37;99113.91;;;11.08;86.76
42603;BME280;28233;55.748;48.752;2023-04-28T01:23:40;99116.78;;;11.11;86.58
42603;BME280;28233;55.748;48.752;2023-04-28T01:25:43;99119.66;;;11.15;86.59
42603;BME280;28233;55.748;48.752;2023-04-28T01:27:46;99121.75;;;11.18;86.54
42603;BME280;28233;55.748;48.752;2023-04-28T01:29:49;99122.22;;;11.20;86.62
42603;BME280;28233;55.748;48.752;2023-04-28T01:31:52;99127.03;;;11.23;86.36
42603;BME280;28233;55.748;48.752;2023-04-28T01:33:55;99137.72;;;11.25;86.03
42603;BME280;28233;55.748;48.752;2023-04-28T01:35:58;99133.81;;;11.26;86.18
42603;BME280;28233;55.748;48.752;2023-04-28T01:38:00;99137.72;;;11.25;85.79
42603;BME280;28233;55.748;48.752;2023-04-28T01:40:04;99126.34;;;11.26;85.95
42603;BME280;28233;55.748;48.752;2023-04-28T01:42:07;99135.75;;;11.25;85.65
42603;BME280;28233;55.748;48.752;2023-04-28T01:44:09;99136.91;;;11.24;85.99
42603;BME280;28233;55.748;48.752;2023-04-28T01:46:14;99134.59;;;11.26;85.66
42603;BME280;28233;55.748;48.752;2023-04-28T01:48:17;99133.81;;;11.26;85.71
42603;BME280;28233;55.748;48.752;2023-04-28T01:50:20;99129.78;;;11.23;85.82
42603;BME280;28233;55.748;48.752;2023-04-28T01:52:23;99133.31;;;11.24;85.80
42603;BME280;28233;55.748;48.752;2023-04-28T01:54:25;99144.00;;;11.25;86.14
42603;BME280;28233;55.748;48.752;2023-04-28T01:56:28;99137.03;;;11.28;85.95
42603;BME280;28233;55.748;48.752;2023-04-28T01:58:31;99139.44;;;11.29;85.87
42603;BME280;28233;55.748;48.752;2023-04-28T02:00:34;99130.53;;;11.32;85.81
42603;BME280;28233;55.748;48.752;2023-04-28T02:02:37;99146.34;;;11.35;85.48
42603;BME280;28233;55.748;48.752;2023-04-28T02:04:40;99146.13;;;11.40;85.29
42603;BME280;28233;55.748;48.752;2023-04-28T02:06:43;99145.47;;;11.43;85.50
42603;BME280;28233;55.748;48.752;2023-04-28T02:08:46;99149.97;;;11.48;84.98
42603;BME280;28233;55.748;48.752;2023-04-28T02:10:49;99144.25;;;11.53;84.89
42603;BME280;28233;55.748;48.752;2023-04-28T02:12:52;99145.06;;;11.54;84.79
42603;BME280;28233;55.748;48.752;2023-04-28T02:14:55;99150.34;;;11.59;84.36
42603;BME280;28233;55.748;48.752;2023-04-28T02:16:58;99146.94;;;11.62;84.83
42603;BME280;28233;55.748;48.752;2023-04-28T02:19:01;99145.47;;;11.64;83.88
42603;BME280;28233;55.748;48.752;2023-04-28T02:21:08;99151.22;;;11.72;83.74
42603;BME280;28233;55.748;48.752;2023-04-28T02:23:13;99156.03;;;11.75;83.57
42603;BME280;28233;55.748;48.752;2023-04-28T02:25:16;99152.59;;;11.78;83.65
42603;BME280;28233;55.748;48.752;2023-04-28T02:27:20;99156.28;;;11.82;83.47
42603;BME280;28233;55.748;48.752;2023-04-28T02:29:23;99155.78;;;11.89;nan
42603;BME280;28233;55.748;48.752;2023-04-28T02:31:26;99162.22;;;11.93;83.00
42603;BME280;28233;55.748;48.752;2023-04-28T02:33:28;99160.84;;;11.99;82.97
42603;BME280;28233;55.748;48.752;2023-04-28T02:35:31;99160.97;;;12.02;82.83
42603;BME280;28233;55.748;48.752;2023-04-28T02:37:34;99157.22;;;12.07;82.42
42603;BME280;28233;55.748;48.752;2023-04-28T02:39:37;99161.34;;;12.13;82.15
42603;BME280;28233;55.748;48.752;2023-04-28T02:41:41;99162.28;;;12.17;81.97
42603;BME280;28233;55.748;48.752;2023-04-28T02:43:44;99164.81;;;12.22;82.01
42603;BME280;28233;55.748;48.752;2023-04-28T02:45:46;99152.19;;;12.21;81.56
42603;BME280;28233;55.748;48.752;2023-04-28T02:47:49;99167.81;;;12.30;81.53
42603;BME280;28233;55.748;48.752;2023-04-28T02:49:52;99162.09;;;12.35;81.18
42603;BME280;28233;55.748;48.752;2023-04-28T02:51:55;99173.22;;;12.38;81.00
42603;BME280;28233;55.748;48.752;2023-04-28T02:53:58;99174.16;;;12.42;81.01
42603;BME280;28233;55.748;48.752;2023-04-28T02:56:01;99170.38;;;12.47;80.62
42603;BME280;28233;55.748;48.752;2023-04-28T02:58:05;99171.28;;;12.51;80.87
42603;BME280;28233;55.748;48.752;2023-04-28T03:00:08;99182.41;;;12.55;80.81
42603;BME280;28233;55.748;48.752;2023-04-28T03:02:11;99178.63;;;12.59;80.43
42603;BME280;28233;55.748;48.752;2023-04-28T03:04:15;99183.59;;;12.66;80.39
42603;BME280;28233;55.748;48.752;2023-04-28T03:06:18;99185.19;;;12.67;80.08
42603;BME280;28233;55.748;48.752;2023-04-28T03:08:21;99183.13;;;12.76;80.29
42603;BME280;28233;55.748;48.752;2023-04-28T03:10:24;99182.78;;;12.78;80.11
42603;BME280;28233;55.748;48.752;2023-04-28T03:12:27;99184.50;;;12.82;80.02
42603;BME280;28233;55.748;48.752;2023-04-28T03:14:30;99180.72;;;12.87;79.83
42603;BME280;28233;55.748;48.752;2023-04-28T03:16:33;99191.50;;;12.92;79.41
42603;BME280;28233;55.748;48.752;2023-04-28T03:18:36;99190.00;;;12.95;79.46
42603;BME280;28233;55.748;48.752;2023-04-28T03:20:39;99188.97;;;12.99;79.14
42603;BME280;28233;55.748;48.752;2023-04-28T03:22:41;99191.03;;;13.02;79.21
42603;BME280;28233;55.748;48.752;2023-04-28T03:24:44;99191.97;;;13.06;79.11
42603;BME280;28233;55.748;48.752;2023-04-28T03:26:47;99199.19;;;13.11;78.67
42603;BME280;28233;55.748;48.752;2023-04-28T03:28:50;99202.88;;;13.15;78.13
42603;BME280;28233;55.748;48.752;2023-04-28T03:30:53;99204.59;;;13.20;78.14
42603;BME280;28233;55.748;48.752;2023-04-28T03:32:56;99199.53;;;13.22;78.17
42603;BME280;28233;55.748;48.752;2023-04-28T03:34:59;99201.25;;;13.26;78.19
42603;BME280;28233;55.748;48.752;2023-04-28T03:37:01;99197.47;;;13.31;77.70
42603;BME280;28233;55.748;48.752;2023-04-28T03:39:04;99204.69;;;13.36;77.30
42603;BME280;28233;55.748;48.752;2023-04-28T03:41:07;99210.66;;;13.38;76.86
42603;BME280;28233;55.748;48.752;2023-04-28T03:43:10;99205.28;;;13.41;77.06
42603;BME280;28233;55.748;48.752;2023-04-28T03:45:13;99212.13;;;13.47;76.74
42603;BME280;28233;55.748;48.752;2023-04-28T03:47:16;99212.25;;;13.51;76.42
42603;BME280;28233;55.748;48.752;2023-04-28T03:49:18;99216.28;;;13.53;76.44
42603;BME280;28233;55.748;48.752;2023-04-28T03:51:21;99216.41;;;13.57;76.50
42603;BME280;28233;55.748;48.752;2023-04-28T03:53:24;99214.88;;;13.60;76.18
42603;BME280;28233;55.748;48.752;2023-04-28T03:55:27;99222.91;;;13.65;76.11
42603;BME280;28233;55.748;48.752;2023-04-28T03:57:30;99222.22;;;13.68;76.16
42603;BME280;28233;55.748;48.752;2023-04-28T03:59:33;99224.84;;;13.77;76.48
42603;BME280;28233;55.748;48.752;2023-04-28T04:01:36;99234.03;;;13.81;76.06
42603;BME280;28233;55.748;48.752;2023-04-28T04:03:38;99229.06;;;13.86;75.90
42603;BME280;28233;55.748;48.752;2023-04-28T04:05:42;99230.78;;;13.91;75.69
42603;BME280;28233;55.748;48.752;2023-04-28T04:07:45;99224.53;;;13.94;75.41
42603;BME280;28233;55.748;48.752;2023-04-28T04:09:48;99224.66;;;13.98;75.13
42603;BME280;28233;55.748;48.752;2023-04-28T04:11:51;99229.56;;;14.04;74.57
42603;BME280;28233;55.748;48.752;2023-04-28T04:13:53;99232.44;;;14.08;74.12
42603;BME280;28233;55.748;48.752;2023-04-28T04:15:57;99234.13;;;14.12;73.71
42603;BME280;28233;55.748;48.752;2023-04-28T04:18:02;99237.81;;;14.16;73.34
42603;BME280;28233;55.748;48.752;2023-04-28T04:20:05;99233.28;;;14.24;73.05
42603;BME280;28233;55.748;48.752;2023-04-28T04:22:08;99238.53;;;14.29;73.00
42603;BME280;28233;55.748;48.752;2023-04-28T04:24:11;99239.44;;;14.33;73.08
42603;BME280;28233;55.748;48.752;2023-04-28T04:26:14;99229.28;;;14.37;72.70
42603;BME280;28233;55.748;48.752;2023-04-28T04:28:17;99235.09;;;14.48;71.65
42603;BME280;28233;55.748;48.752;2023-04-28T04:30:20;99241.53;;;14.52;71.34
42603;BME280;28233;55.748;48.752;2023-04-28T04:32:22;99244.41;;;14.56;70.82
42603;BME280;28233;55.748;48.752;2023-04-28T04:34:25;99247.25;;;14.59;70.67
42603;BME280;28233;55.748;48.752;2023-04-28T04:36:29;99247.81;;;14.65;70.41
42603;BME280;28233;55.748;48.752;2023-04-28T04:38:31;99244.78;;;14.70;70.36
42603;BME280;28233;55.748;48.752;2023-04-28T04:40:34;99245.59;;;14.71;70.42
42603;BME280;28233;55.748;48.752;2023-04-28T04:42:38;99250.50;;;14.77;70.47
42603;BME280;28233;55.748;48.752;2023-04-28T04:44:41;99253.34;;;14.81;69.99
42603;BME280;28233;55.748;48.752;2023-04-28T04:46:44;99249.16;;;14.87;69.78
42603;BME280;28233;55.748;48.752;2023-04-28T04:48:48;99257.97;;;14.93;69.27
42603;BME280;28233;55.748;48.752;2023-04-28T04:50:51;99250.50;;;14.93;69.50
42603;BME280;28233;55.748;48.752;2023-04-28T04:52:54;99257.72;;;14.98;69.01
42603;BME280;28233;55.748;48.752;2023-04-28T04:54:58;99261.38;;;15.02;68.54
42603;BME280;28233;55.748;48.752;2023-04-28T04:57:01;99256.47;;;15.11;68.25
42603;BME280;28233;55.748;48.752;2023-04-28T04:59:05;99249.84;;;15.16;68.09
42603;BME280;28233;55.748;48.752;2023-04-28T05:01:07;99259.50;;;15.22;67.62
42603;BME280;28233;55.748;48.752;2023-04-28T05:03:10;99260.00;;;15.28;67.43
42603;BME280;28233;55.748;48.752;2023-04-28T05:05:14;99268.75;;;15.30;67.34
42603;BME280;28233;55.748;48.752;2023-04-28T05:07:25;99265.38;;;15.36;66.48
42603;BME280;28233;55.748;48.752;2023-04-28T05:09:28;99268.66;;;15.42;65.77
42603;BME280;28233;55.748;48.752;2023-04-28T05:11:32;99276.31;;;15.49;65.41
42603;BME280;28233;55.748;48.752;2023-04-28T05:13:34;99273.25;;;15.54;64.63
42603;BME280;28233;55.748;48.752;2023-04-28T05:15:37;99268.25;;;15.59;64.74
42603;BME280;28233;55.748;48.752;2023-04-28T05:17:40;99274.31;;;15.65;63.82
42603;BME280;28233;55.748;48.752;2023-04-28T05:19:43;99274.41;;;15.69;63.43
42603;BME280;28233;55.748;48.752;2023-04-28T05:21:46;99275.38;;;15.76;63.56
42603;BME280;28233;55.748;48.752;2023-04-28T05:23:49;99288.50;;;15.79;62.85
42603;BME280;28233;55.748;48.752;2023-04-28T05:25:52;99286.19;;;15.81;62.53
42603;BME280;28233;55.748;48.752;2023-04-28T05:27:55;99285.09;;;15.86;62.07
42603;BME280;28233;55.748;48.752;2023-04-28T05:29:58;99290.34;;;15.91;61.90
42603;BME280;28233;55.748;48.752;2023-04-28T05:32:01;99284.88;;;15.95;61.70
42603;BME280;28233;55.748;48.752;2023-04-28T05:34:04;99285.38;;;16.00;61.45
42603;BME280;28233;55.748;48.752;2023-04-28T05:36:08;99283.94;;;16.06;60.96
42603;BME280;28233;55.748;48.752;2023-04-28T05:38:11;99284.38;;;16.09;60.68
42603;BME280;28233;55.748;48.752;2023-04-28T05:40:14;99295.19;;;16.14;60.64
42603;BME280;28233;55.748;48.752;2023-04-28T05:42:16;99283.00;;;16.18;60.27
42603;BME280;28233;55.748;48.752;2023-04-28T05:44:19;99283.44;;;16.20;60.33
42603;BME280;28233;55.748;48.752;2023-04-28T05:46:22;99285.16;;;16.28;60.31
42603;BME280;28233;55.748;48.752;2023-04-28T05:48:32;99282.63;;;16.39;60.11
42603;BME280;28233;55.748;48.752;2023-04-28T05:50:35;99290.69;;;16.48;59.81
42603;BME280;28233;55.748;48.752;2023-04-28T05:52:40;99285.22;;;16.52;59.86
42603;BME280;28233;55.748;48.752;2023-04-28T05:54:43;99274.63;;;16.57;59.75
42603;BME280;28233;55.748;48.752;2023-04-28T05:56:45;99280.25;;;16.61;59.23
42603;BME280;28233;55.748;48.752;2023-04-28T05:58:49;99289.94;;;16.70;58.79
42603;BME280;28233;55.748;48.752;2023-04-28T06:00:52;99287.28;;;16.78;58.27
42603;BME280;28233;55.748;48.752;2023-04-28T06:02:57;99284.59;;;16.81;57.66
42603;BME280;28233;55.748;48.752;2023-04-28T06:05:00;99298.53;;;16.85;57.52
42603;BME280;28233;55.748;48.752;2023-04-28T06:07:05;99290.34;;;16.92;56.86
42603;BME280;28233;55.748;48.752;2023-04-28T06:09:08;99289.22;;;16.97;56.58
42603;BME280;28233;55.748;48.752;2023-04-28T06:11:10;99296.09;;;17.03;56.38
42603;BME280;28233;55.748;48.752;2023-04-28T06:13:13;99294.97;;;17.07;56.31
42603;BME280;28233;55.748;48.752;2023-04-28T06:15:16;99297.91;;;17.18;56.25
42603;BME280;28233;55.748;48.752;2023-04-28T06:17:20;99300.38;;;17.23;55.89
42603;BME280;28233;55.748;48.752;2023-04-28T06:19:23;99298.09;;;17.29;55.70
42603;BME280;28233;55.748;48.752;2023-04-28T06:21:26;99285.03;;;17.33;54.63
42603;BME280;28233;55.748;48.752;2023-04-28T06:23:30;99296.22;;;17.37;54.53
42603;BME280;28233;55.748;48.752;2023-04-28T06:25:33;99299.03;;;17.40;54.67
42603;BME280;28233;55.748;48.752;2023-04-28T06:27:35;99299.97;;;17.48;54.21
42603;BME280;28233;55.748;48.752;2023-04-28T06:29:38;99286.94;;;17.52;53.58
42603;BME280;28233;55.748;48.752;2023-04-28T06:31:41;99295.84;;;17.65;52.91
42603;BME280;28233;55.748;48.752;2023-04-28T06:33:44;99299.91;;;17.71;52.85
42603;BME280;28233;55.748;48.752;2023-04-28T06:35:47;99301.19;;;17.77;52.00
42603;BME280;28233;55.748;48.752;2023-04-28T06:37:50;99303.28;;;17.84;52.66
42603;BME280;28233;55.748;48.752;2023-04-28T06:39:53;99300.28;;;17.96;52.10
42603;BME280;28233;55.748;48.752;2023-04-28T06:41:56;99303.31;;;18.14;51.54
42603;BME280;28233;55.748;48.752;2023-04-28T06:43:59;99307.75;;;18.22;51.05
42603;BME280;28233;55.748;48.752;2023-04-28T06:46:02;99304.69;;;18.31;51.06
42603;BME280;28233;55.748;48.752;2023-04-28T06:48:05;99314.75;;;18.39;50.50
42603;BME280;28233;55.748;48.752;2023-04-28T06:50:09;99311.97;;;18.43;50.56
42603;BME280;28233;55.748;48.752;2023-04-28T06:52:12;99308.50;;;18.49;49.85
42603;BME280;28233;55.748;48.752;2023-04-28T06:54:16;99311.69;;;18.51;49.81
42603;BME280;28233;55.748;48.752;2023-04-28T06:56:19;99310.50;;;18.52;49.45
42603;BME280;28233;55.748;48.752;2023-04-28T06:58:22;99309.72;;;18.55;49.67
42603;BME280;28233;55.748;48.752;2023-04-28T07:00:25;99303.38;;;18.55;49.57
42603;BME280;28233;55.748;48.752;2023-04-28T07:02:28;99306.22;;;18.58;49.00
42603;BME280;28233;55.748;48.752;2023-04-28T07:04:31;99297.47;;;18.60;49.50
42603;BME280;28233;55.748;48.752;2023-04-28T07:06:34;99307.53;;;18.72;49.32
42603;BME280;28233;55.748;48.752;2023-04-28T07:08:37;99303.66;;;18.80;48.24
42603;BME280;28233;55.748;48.752;2023-04-28T07:10:40;99303.75;;;18.87;47.49
42603;BME280;28233;55.748;48.752;2023-04-28T07:12:43;99305.41;;;18.95;47.64
42603;BME280;28233;55.748;48.752;2023-04-28T07:14:46;99305.88;;;19.01;47.52
42603;BME280;28233;55.748;48.752;2023-04-28T07:16:48;99306.63;;;18.98;47.30
42603;BME280;28233;55.748;48.752;2023-04-28T07:18:51;99301.50;;;19.04;46.59
42603;BME280;28233;55.748;48.752;2023-04-28T07:20:54;99300.38;;;19.12;46.25
42603;BME280;28233;55.748;48.752;2023-04-28T07:22:58;99307.91;;;19.08;46.27
42603;BME280;28233;55.748;48.752;2023-04-28T07:25:01;99298.00;;;19.14;46.66
42603;BME280;28233;55.748;48.752;2023-04-28T07:27:04;99300.09;;;19.24;45.56
42603;BME280;28233;55.748;48.752;2023-04-28T07:29:07;99297.75;;;19.30;45.33
42603;BME280;28233;55.748;48.752;2023-04-28T07:31:15;99298.56;;;19.34;44.32
42603;BME280;28233;55.748;48.752;2023-04-28T07:33:17;99298.22;;;19.39;44.74
42603;BME280;28233;55.748;48.752;2023-04-28T07:35:20;99289.91;;;19.42;44.19
42603;BME280;28233;55.748;48.752;2023-04-28T07:37:36;99300.25;;;19.46;44.66
42603;BME280;28233;55.748;48.752;2023-04-28T07:39:39;99295.16;;;19.55;45.01
42603;BME280;28233;55.748;48.752;2023-04-28T07:41:43;99295.94;;;19.55;45.64
42603;BME280;28233;55.748;48.752;2023-04-28T07:43:45;99296.78;;;19.63;45.35
42603;BME280;28233;55.748;48.752;2023-04-28T07:45:48;99294.91;;;19.74;45.68
42603;BME280;28233;55.748;48.752;2023-04-28T07:47:52;99296.16;;;19.84;45.75
42603;BME280;28233;55.748;48.752;2023-04-28T07:49:55;99290.22;;;19.93;44.88
42603;BME280;28233;55.748;48.752;2023-04-28T07:51:58;99283.47;;;20.01;44.93
42603;BME280;28233;55.748;48.752;2023-04-28T07:54:01;99292.28;;;20.06;44.99
42603;BME280;28233;55.748;48.752;2023-04-28T07:56:04;99299.09;;;20.20;44.86
42603;BME280;28233;55.748;48.752;2023-04-28T07:58:07;99290.38;;;20.28;44.44
42603;BME280;28233;55.748;48.752;2023-04-28T08:00:10;99294.81;;;20.37;44.18
42603;BME280;28233;55.748;48.752;2023-04-28T08:02:13;99292.41;;;20.39;43.97
42603;BME280;28233;55.748;48.752;2023-04-28T08:04:17;99301.19;;;20.48;43.77
42603;BME280;28233;55.748;48.752;2023-04-28T08:06:20;99297.63;;;20.51;43.13
42603;BME280;28233;55.748;48.752;2023-04-28T08:08:23;99295.97;;;20.32;43.80
42603;BME280;28233;55.748;48.752;2023-04-28T08:10:27;99295.09;;;20.17;43.38
42603;BME280;28233;55.748;48.752;2023-04-28T08:12:30;99282.78;;;20.18;43.89
42603;BME280;28233;55.748;48.752;2023-04-28T08:14:33;99293.53;;;20.27;43.82
42603;BME280;28233;55.748;48.752;2023-04-28T08:16:37;99289.59;;;20.32;43.97
42603;BME280;28233;55.748;48.752;2023-04-28T08:18:42;99292.03;;;20.44;43.65
42603;BME280;28233;55.748;48.752;2023-04-28T08:20:45;99291.25;;;20.54;43.27
42603;BME280;28233;55.748;48.752;2023-04-28T08:22:48;99292.13;;;20.65;42.72
42603;BME280;28233;55.748;48.752;2023-04-28T08:24:51;99282.56;;;20.70;42.19
42603;BME280;28233;55.748;48.752;2023-04-28T08:26:54;99286.19;;;20.81;41.96
42603;BME280;28233;55.748;48.752;2023-04-28T08:28:56;99284.97;;;20.82;42.73
42603;BME280;28233;55.748;48.752;2023-04-28T08:30:59;99284.19;;;20.89;42.34
42603;BME280;28233;55.748;48.752;2023-04-28T08:33:02;99280.59;;;20.92;41.53
42603;BME280;28233;55.748;48.752;2023-04-28T08:35:06;99286.19;;;20.99;42.04
42603;BME280;28233;55.748;48.752;2023-04-28T08:37:09;99283.00;;;21.08;41.44
42603;BME280;28233;55.748;48.752;2023-04-28T08:39:12;99287.38;;;21.09;41.17
42603;BME280;28233;55.748;48.752;2023-04-28T08:41:15;99279.00;;;21.16;40.99
42603;BME280;28233;55.748;48.752;2023-04-28T08:43:18;99279.00;;;21.27;41.35
42603;BME280;28233;55.748;48.752;2023-04-28T08:45:23;99281.00;;;21.23;41.05
42603;BME280;28233;55.748;48.752;2023-04-28T08:47:36;99281.78;;;21.27;40.64
42603;BME280;28233;55.748;48.752;2023-04-28T08:50:02;99277.00;;;21.38;40.52
42603;BME280;28233;55.748;48.752;2023-04-28T08:52:11;99264.25;;;21.48;40.57
42603;BME280;28233;55.748;48.752;2023-04-28T08:54:14;99270.25;;;21.43;40.60
42603;BME280;28233;55.748;48.752;2023-04-28T08:56:31;99277.00;;;21.56;40.24
42603;BME280;28233;55.748;48.752;2023-04-28T08:58:35;99265.00;;;21.63;39.64
42603;BME280;28233;55.748;48.752;2023-04-28T09:00:41;99275.78;;;21.68;39.49
42603;BME280;28233;55.748;48.752;2023-04-28T09:02:44;99262.16;;;21.77;39.68
42603;BME280;28233;55.748;48.752;2023-04-28T09:04:47;99274.09;;;21.99;40.18
42603;BME280;28233;55.748;48.752;2023-04-28T09:06:50;99257.66;;;22.12;39.30
42603;BME280;28233;55.748;48.752;2023-04-28T09:08:52;99268.81;;;22.26;38.47
42603;BME280;28233;55.748;48.752;2023-04-28T09:11:15;99265.59;;;22.31;37.83
42603;BME280;28233;55.748;48.752;2023-04-28T09:13:24;99254.38;;;22.35;38.08
42603;BME280;28233;55.748;48.752;2023-04-28T09:17:51;99262.22;;;22.65;39.46
42603;BME280;28233;55.748;48.752;2023-04-28T09:19:54;99262.16;;;22.69;38.43
42603;BME280;28233;55.748;48.752;2023-04-28T09:21:57;99255.38;;;22.70;39.56
42603;BME280;28233;55.748;48.752;2023-04-28T09:24:05;99259.34;;;22.72;38.30
42603;BME280;28233;55.748;48.752;2023-04-28T09:26:08;99264.19;;;22.68;37.69
42603;BME280;28233;55.748;48.752;2023-04-28T09:28:20;99266.28;;;22.50;37.86
42603;BME280;28233;55.748;48.752;2023-04-28T09:30:49;99256.03;;;22.18;37.92
42603;BME280;28233;55.748;48.752;2023-04-28T09:33:05;99244.06;;;22.10;37.97
42603;BME280;28233;55.748;48.752;2023-04-28T09:35:11;99260.84;;;22.21;38.29
42603;BME280;28233;55.748;48.752;2023-04-28T09:37:18;99264.44;;;22.22;38.40
42603;BME280;28233;55.748;48.752;2023-04-28T09:39:29;99263.13;;;22.41;38.38
42603;BME280;28233;55.748;48.752;2023-04-28T09:41:39;99256.38;;;22.34;37.62
42603;BME280;28233;55.748;48.752;2023-04-28T09:43:42;99259.84;;;22.53;37.50
42603;BME280;28233;55.748;48.752;2023-04-28T09:45:45;99266.53;;;22.73;37.25
42603;BME280;28233;55.748;48.752;2023-04-28T09:47:48;99265.19;;;22.92;36.57
42603;BME280;28233;55.748;48.752;2023-04-28T09:49:58;99265.63;;;22.91;37.01
42603;BME280;28233;55.748;48.752;2023-04-28T09:52:11;99267.91;;;23.10;37.42
42603;BME280;28233;55.748;48.752;2023-04-28T09:54:15;99262.69;;;23.09;36.48
42603;BME280;28233;55.748;48.752;2023-04-28T09:56:19;99263.19;;;22.93;36.17
42603;BME280;28233;55.748;48.752;2023-04-28T09:58:25;99262.09;;;22.79;36.22
42603;BME280;28233;55.748;48.752;2023-04-28T10:00:28;99268.16;;;22.74;36.80
42603;BME280;28233;55.748;48.752;2023-04-28T10:02:34;99267.00;;;22.65;36.39
42603;BME280;28233;55.748;48.752;2023-04-28T10:04:43;99271.00;;;22.64;35.94
42603;BME280;28233;55.748;48.752;2023-04-28T10:06:47;99265.06;;;22.58;36.04
42603;BME280;28233;55.748;48.752;2023-04-28T10:08:50;99261.91;;;22.45;36.31
42603;BME280;28233;55.748;48.752;2023-04-28T10:10:54;99263.22;;;22.30;36.02
42603;BME280;28233;55.748;48.752;2023-04-28T10:12:59;99254.41;;;22.28;36.12
42603;BME280;28233;55.748;48.752;2023-04-28T10:15:03;99271.06;;;22.56;36.21
42603;BME280;28233;55.748;48.752;2023-04-28T10:17:08;99260.44;;;22.86;35.27
42603;BME280;28233;55.748;48.752;2023-04-28T10:19:11;99261.06;;;23.11;36.48
42603;BME280;28233;55.748;48.752;2023-04-28T10:21:17;99257.72;;;23.31;34.90
42603;BME280;28233;55.748;48.752;2023-04-28T10:24:02;99257.66;;;23.38;34.31
42603;BME280;28233;55.748;48.752;2023-04-28T10:26:11;99260.28;;;23.56;34.28
42603;BME280;28233;55.748;48.752;2023-04-28T10:28:16;99254.91;;;23.76;33.89
42603;BME280;28233;55.748;48.752;2023-04-28T10:30:22;99260.88;;;23.78;33.34
42603;BME280;28233;55.748;48.752;2023-04-28T10:32:30;99252.38;;;23.85;34.03
42603;BME280;28233;55.748;48.752;2023-04-28T10:34:34;99261.72;;;24.09;34.26
42603;BME280;28233;55.748;48.752;2023-04-28T10:36:51;99258.91;;;24.09;32.40
42603;BME280;28233;55.748;48.752;2023-04-28T10:39:22;99250.44;;;24.13;32.06
42603;BME280;28233;55.748;48.752;2023-04-28T10:41:31;99259.91;;;24.26;32.02
42603;BME280;28233;55.748;48.752;2023-04-28T10:43:36;99263.06;;;24.28;31.99
42603;BME280;28233;55.748;48.752;2023-04-28T10:47:59;99260.56;;;24.37;31.87
42603;BME280;28233;55.748;48.752;2023-04-28T10:50:07;99267.13;;;24.27;31.95
42603;BME280;28233;55.748;48.752;2023-04-28T10:54:34;99267.16;;;23.89;32.65
42603;BME280;28233;55.748;48.752;2023-04-28T10:56:37;99255.31;;;23.74;32.64